Time;durP1;ratioP1;P1;durP2;ratioP2;P2;SDS_P1;SDS_P2;PMS_P1;PMS_P2;Temp;Humidity;BMP_temperature;BMP_pressure;BME280_temperature;BME280_humidity;BME280_pressure;Samples;Min_cycle;Max_cycle;Signal;HPM_P1;HPM_P2
2023/01/10 00:01:32;;;;;;;12.13;6.43;;;;;;;-145.63;100.00;61273.97;4779584;30;20104;-66
2023/01/10 00:03:58;;;;;;;13.75;7.57;;;;;;;-145.63;100.00;61273.97;4778879;30;20048;-64
2023/01/10 00:06:24;;;;;;;15.55;8.00;;;;;;;-145.63;100.00;61273.97;4779459;30;20032;-64
2023/01/10 00:08:50;;;;;;;15.20;8.13;;;;;;;-145.63;100.00;61273.97;4779360;30;20092;-66
2023/01/10 00:13:59;;;;;;;12.73;8.07;;;;;;;-145.63;100.00;61273.97;4779254;30;20315;-63
2023/01/10 00:16:25;;;;;;;11.70;7.68;;;;;;;-145.63;100.00;61273.97;4793137;30;20102;-64
2023/01/10 00:18:51;;;;;;;15.80;8.35;;;;;;;-145.63;100.00;61273.97;4778799;30;20035;-66
2023/01/10 00:21:17;;;;;;;20.05;9.55;;;;;;;-145.63;100.00;61273.97;4779144;30;20053;-63
2023/01/10 00:23:43;;;;;;;15.35;8.35;;;;;;;-145.63;100.00;61273.97;4779173;30;20036;-63
2023/01/10 00:26:09;;;;;;;13.88;8.40;;;;;;;-145.63;100.00;61273.97;4778802;30;20095;-63
2023/01/10 00:28:35;;;;;;;14.73;7.95;;;;;;;-145.63;100.00;61273.97;4778352;30;20308;-64
2023/01/10 00:31:05;;;;;;;15.82;8.32;;;;;;;-145.63;100.00;61273.97;4778966;30;20031;-62
2023/01/10 00:33:37;;;;;;;14.30;7.90;;;;;;;-145.63;100.00;61273.97;4778896;30;20081;-65
2023/01/10 00:36:06;;;;;;;13.60;8.43;;;;;;;-145.63;100.00;61273.97;4778427;30;20207;-64
2023/01/10 00:38:33;;;;;;;14.32;7.40;;;;;;;-145.63;100.00;61273.97;4768914;30;20093;-64
2023/01/10 00:40:58;;;;;;;12.48;6.90;;;;;;;-145.63;100.00;61273.97;4778103;30;20035;-63
2023/01/10 00:46:09;;;;;;;15.10;8.63;;;;;;;-145.63;100.00;61273.97;4765882;30;20039;-64
2023/01/10 00:48:35;;;;;;;12.40;7.60;;;;;;;-145.63;100.00;61273.97;4780795;30;20027;-65
2023/01/10 00:51:01;;;;;;;12.10;7.60;;;;;;;-145.63;100.00;61273.97;4782038;30;20095;-65
2023/01/10 00:53:26;;;;;;;13.50;7.45;;;;;;;-145.63;100.00;61273.97;4782349;30;20050;-65
2023/01/10 00:55:55;;;;;;;12.38;7.68;;;;;;;-145.63;100.00;61273.97;4782281;30;20035;-64
2023/01/10 00:58:21;;;;;;;13.00;7.47;;;;;;;-145.63;100.00;61273.97;4796129;30;20035;-64
2023/01/10 01:00:51;;;;;;;16.52;8.35;;;;;;;-145.63;100.00;61273.97;4781016;30;20221;-63
2023/01/10 01:03:19;;;;;;;13.52;8.50;;;;;;;-145.63;100.00;61273.97;4781882;30;20036;-64
2023/01/10 01:05:45;;;;;;;13.00;7.60;;;;;;;-145.63;100.00;61273.97;4781865;30;20040;-63
2023/01/10 01:08:13;;;;;;;11.32;7.63;;;;;;;-145.63;100.00;61273.97;4781999;30;20338;-64
2023/01/10 01:10:39;;;;;;;11.75;7.32;;;;;;;-145.63;100.00;61273.97;4782139;30;20081;-64
2023/01/10 01:13:12;;;;;;;11.65;6.78;;;;;;;-145.63;100.00;61273.97;4795970;30;20104;-63
2023/01/10 01:15:38;;;;;;;10.63;7.47;;;;;;;-145.63;100.00;61273.97;4781988;30;20058;-64
2023/01/10 01:18:04;;;;;;;12.38;7.45;;;;;;;-145.63;100.00;61273.97;4781610;30;20048;-64
2023/01/10 01:20:31;;;;;;;11.10;6.70;;;;;;;-145.63;100.00;61273.97;4781569;30;20242;-63
2023/01/10 01:22:57;;;;;;;8.88;5.85;;;;;;;-145.63;100.00;61273.97;4781821;30;20081;-63
2023/01/10 01:25:23;;;;;;;13.57;7.78;;;;;;;-145.63;100.00;61273.97;4781865;30;20047;-64
2023/01/10 01:27:48;;;;;;;10.95;7.32;;;;;;;-145.63;100.00;61273.97;4781674;30;20055;-63
2023/01/10 01:30:14;;;;;;;12.70;8.05;;;;;;;-145.63;100.00;61273.97;4785150;30;20086;-64
2023/01/10 01:32:40;;;;;;;13.57;7.88;;;;;;;-145.63;100.00;61273.97;4799451;29;20066;-62
2023/01/10 01:35:08;;;;;;;11.95;7.18;;;;;;;-145.63;100.00;61273.97;4797818;30;20162;-65
2023/01/10 01:37:33;;;;;;;9.93;6.88;;;;;;;-145.63;100.00;61273.97;4799429;29;20051;-63
2023/01/10 01:39:59;;;;;;;11.52;7.72;;;;;;;-145.63;100.00;61273.97;4799271;29;20039;-64
2023/01/10 01:42:30;;;;;;;12.82;7.40;;;;;;;-145.63;100.00;61273.97;4799533;29;20039;-63
2023/01/10 01:45:08;;;;;;;13.60;6.70;;;;;;;-145.63;100.00;61273.97;4799502;29;20037;-65
2023/01/10 01:47:40;;;;;;;10.70;6.78;;;;;;;-145.63;100.00;61273.97;4781185;30;20209;-63
2023/01/10 01:50:18;;;;;;;13.85;7.97;;;;;;;-145.63;100.00;61273.97;4780848;30;20055;-64
2023/01/10 01:52:45;;;;;;;13.18;7.38;;;;;;;-145.63;100.00;61273.97;4780703;30;20036;-64
2023/01/10 01:55:11;;;;;;;11.18;7.30;;;;;;;-145.63;100.00;61273.97;4781178;30;20056;-65
2023/01/10 01:57:38;;;;;;;13.45;7.97;;;;;;;-145.63;100.00;61273.97;4781469;30;20039;-65
2023/01/10 02:00:05;;;;;;;14.43;7.07;;;;;;;-145.63;100.00;61273.97;4780778;30;20032;-65
2023/01/10 02:02:34;;;;;;;10.68;6.20;;;;;;;-145.63;100.00;61273.97;4780265;30;20031;-64
2023/01/10 02:05:04;;;;;;;11.48;7.43;;;;;;;-145.63;100.00;61273.97;4780435;30;20047;-65
2023/01/10 02:07:39;;;;;;;11.93;7.50;;;;;;;-145.63;100.00;61273.97;4781028;30;20250;-65
2023/01/10 02:10:20;;;;;;;12.05;7.38;;;;;;;-145.63;100.00;61273.97;4781025;30;20035;-67
2023/01/10 02:12:49;;;;;;;11.00;7.07;;;;;;;-145.63;100.00;61273.97;4780958;30;20112;-64
2023/01/10 02:15:15;;;;;;;12.05;6.93;;;;;;;-145.63;100.00;61273.97;4780249;30;20052;-65
2023/01/10 02:17:41;;;;;;;10.32;7.13;;;;;;;-145.63;100.00;61273.97;4781219;30;20035;-66
2023/01/10 02:20:11;;;;;;;10.48;7.03;;;;;;;-145.63;100.00;61273.97;4780251;30;20410;-65
2023/01/10 02:23:04;;;;;;;10.10;7.28;;;;;;;-145.63;100.00;61273.97;4780611;30;20063;-66
2023/01/10 02:25:52;;;;;;;11.15;6.82;;;;;;;-145.63;100.00;61273.97;4780810;30;20326;-65
2023/01/10 02:28:39;;;;;;;11.90;6.47;;;;;;;-145.63;100.00;61273.97;4780592;30;20065;-64
2023/01/10 02:31:11;;;;;;;10.90;6.95;;;;;;;-145.63;100.00;61273.97;4804895;29;20043;-65
2023/01/10 02:33:40;;;;;;;11.30;7.40;;;;;;;-145.63;100.00;61273.97;4797313;30;20351;-65
2023/01/10 02:36:15;;;;;;;11.65;7.43;;;;;;;-145.63;100.00;61273.97;4798002;29;20031;-65
2023/01/10 02:38:40;;;;;;;11.15;6.75;;;;;;;-145.63;100.00;61273.97;4797291;30;20062;-64
2023/01/10 02:41:18;;;;;;;11.23;7.20;;;;;;;-145.63;100.00;61273.97;4796972;30;20091;-64
2023/01/10 02:43:57;;;;;;;12.63;6.85;;;;;;;-145.63;100.00;61273.97;4798520;29;20084;-63
2023/01/10 02:46:29;;;;;;;11.35;6.90;;;;;;;-145.63;100.00;61273.97;4788235;30;20050;-62
2023/01/10 02:48:55;;;;;;;14.75;7.40;;;;;;;-145.63;100.00;61273.97;4779649;30;20051;-64
2023/01/10 02:51:24;;;;;;;10.60;7.07;;;;;;;-145.63;100.00;61273.97;4778698;30;20391;-64
2023/01/10 02:54:18;;;;;;;10.50;6.68;;;;;;;-145.63;100.00;61273.97;4780078;30;20199;-64
2023/01/10 02:57:14;;;;;;;10.60;7.38;;;;;;;-145.63;100.00;61273.97;4778850;30;20046;-64
2023/01/10 02:59:50;;;;;;;11.50;6.32;;;;;;;-145.63;100.00;61273.97;4780139;30;20054;-63
2023/01/10 03:02:38;;;;;;;11.63;6.45;;;;;;;-145.63;100.00;61273.97;4780128;30;20038;-63
2023/01/10 03:05:23;;;;;;;10.30;6.75;;;;;;;-145.63;100.00;61273.97;4779323;30;20035;-64
2023/01/10 03:08:09;;;;;;;10.10;6.72;;;;;;;-145.63;100.00;61273.97;4779922;30;20039;-65
2023/01/10 03:10:53;;;;;;;11.23;6.60;;;;;;;-145.63;100.00;61273.97;4780000;30;20116;-64
2023/01/10 03:13:26;;;;;;;10.15;6.30;;;;;;;-145.63;100.00;61273.97;4780107;30;20036;-66
2023/01/10 03:16:03;;;;;;;9.18;5.80;;;;;;;-145.63;100.00;61273.97;4779322;30;20035;-65
2023/01/10 03:18:37;;;;;;;10.48;6.32;;;;;;;-145.63;100.00;61273.97;4779873;30;20080;-65
2023/01/10 03:21:05;;;;;;;11.95;6.82;;;;;;;-145.63;100.00;61273.97;4779554;30;20036;-65
2023/01/10 03:23:33;;;;;;;12.30;6.10;;;;;;;-145.63;100.00;61273.97;4781069;30;20091;-66
2023/01/10 03:26:01;;;;;;;11.32;6.03;;;;;;;-145.63;100.00;61273.97;4781034;30;20048;-66
2023/01/10 03:28:40;;;;;;;10.05;6.75;;;;;;;-145.63;100.00;61273.97;4780759;30;20051;-65
2023/01/10 03:31:12;;;;;;;11.40;6.80;;;;;;;-145.63;100.00;61273.97;4790686;30;20102;-66
2023/01/10 03:33:38;;;;;;;11.50;6.45;;;;;;;-145.63;100.00;61273.97;4778989;30;20032;-66
2023/01/10 03:36:26;;;;;;;11.02;6.38;;;;;;;-145.63;100.00;61273.97;4778998;30;20094;-66
2023/01/10 03:38:52;;;;;;;9.90;6.65;;;;;;;-145.63;100.00;61273.97;4779301;30;20035;-67
2023/01/10 03:41:47;;;;;;;10.95;6.07;;;;;;;-145.63;100.00;61273.97;4778736;30;20047;-65
2023/01/10 03:44:43;;;;;;;12.82;6.05;;;;;;;-145.63;100.00;61273.97;4778642;30;20031;-66
2023/01/10 03:47:29;;;;;;;10.93;6.63;;;;;;;-145.63;100.00;61273.97;4778506;30;20088;-67
2023/01/10 03:50:23;;;;;;;10.73;6.75;;;;;;;-145.63;100.00;61273.97;4778625;30;20051;-65
2023/01/10 03:52:49;;;;;;;13.18;6.55;;;;;;;-145.63;100.00;61273.97;4776883;30;20059;-64
2023/01/10 03:55:19;;;;;;;11.88;7.03;;;;;;;-145.63;100.00;61273.97;4777683;30;20039;-65
2023/01/10 03:57:46;;;;;;;12.07;7.25;;;;;;;-145.63;100.00;61273.97;4779419;30;20105;-65
2023/01/10 04:00:14;;;;;;;12.00;6.40;;;;;;;-145.63;100.00;61273.97;4778632;30;20169;-69
2023/01/10 04:02:39;;;;;;;11.88;6.32;;;;;;;-145.63;100.00;61273.97;4794336;30;20374;-65
2023/01/10 04:05:06;;;;;;;10.30;5.60;;;;;;;-145.63;100.00;61273.97;4796976;29;20047;-67
2023/01/10 04:07:31;;;;;;;10.02;6.07;;;;;;;-145.63;100.00;61273.97;4796385;29;20035;-67
2023/01/10 04:09:57;;;;;;;11.07;6.88;;;;;;;-145.63;100.00;61273.97;4797049;29;20027;-66
2023/01/10 04:12:22;;;;;;;8.98;6.53;;;;;;;-145.63;100.00;61273.97;4792245;29;20254;-67
2023/01/10 04:14:48;;;;;;;9.35;6.15;;;;;;;-145.63;100.00;61273.97;4779016;30;20051;-66
2023/01/10 04:17:15;;;;;;;12.00;6.60;;;;;;;-145.63;100.00;61273.97;4781255;30;20354;-65
2023/01/10 04:19:41;;;;;;;9.13;6.57;;;;;;;-145.63;100.00;61273.97;4782187;30;20050;-66
2023/01/10 04:22:07;;;;;;;11.18;6.38;;;;;;;-145.63;100.00;61273.97;4781940;30;20032;-66
2023/01/10 04:24:33;;;;;;;10.75;6.15;;;;;;;-145.63;100.00;61273.97;4782416;30;20126;-66
2023/01/10 04:26:59;;;;;;;12.23;6.65;;;;;;;-145.63;100.00;61273.97;4796486;30;20035;-67
2023/01/10 04:29:25;;;;;;;10.57;6.18;;;;;;;-145.63;100.00;61273.97;4782237;30;20032;-67
2023/01/10 04:31:52;;;;;;;8.35;6.35;;;;;;;-145.63;100.00;61273.97;4788947;30;20051;-68
2023/01/10 04:34:19;;;;;;;13.13;6.32;;;;;;;-145.63;100.00;61273.97;4782039;30;20048;-67
2023/01/10 04:36:45;;;;;;;9.10;5.88;;;;;;;-145.63;100.00;61273.97;4781732;30;20242;-66
2023/01/10 04:39:11;;;;;;;8.63;5.63;;;;;;;-145.63;100.00;61273.97;4782371;30;20277;-65
2023/01/10 04:41:36;;;;;;;10.25;5.82;;;;;;;-145.63;100.00;61273.97;4780553;30;20028;-65
2023/01/10 04:44:03;;;;;;;9.95;4.90;;;;;;;-145.63;100.00;61273.97;4781285;30;20097;-64
2023/01/10 04:46:29;;;;;;;10.68;6.55;;;;;;;-145.63;100.00;61273.97;4782315;30;20052;-65
2023/01/10 04:48:54;;;;;;;10.00;4.57;;;;;;;-145.63;100.00;61273.97;4782374;30;20351;-67
2023/01/10 04:51:21;;;;;;;10.70;6.35;;;;;;;-145.63;100.00;61273.97;4783413;30;20315;-67
2023/01/10 04:53:46;;;;;;;11.43;6.80;;;;;;;-145.63;100.00;61273.97;4788616;30;20035;-68
2023/01/10 04:56:20;;;;;;;13.10;7.00;;;;;;;-145.63;100.00;61273.97;4790331;30;20093;-66
2023/01/10 04:58:46;;;;;;;9.38;5.20;;;;;;;-145.63;100.00;61273.97;4784091;30;20027;-66
2023/01/10 05:01:15;;;;;;;9.75;5.88;;;;;;;-145.63;100.00;61273.97;4781240;30;20491;-69
2023/01/10 05:03:40;;;;;;;10.55;6.18;;;;;;;-145.63;100.00;61273.97;4788776;30;20042;-67
2023/01/10 05:06:06;;;;;;;10.32;5.80;;;;;;;-145.63;100.00;61273.97;4787205;29;20216;-67
2023/01/10 05:08:33;;;;;;;8.40;5.45;;;;;;;-145.63;100.00;61273.97;4781610;30;20038;-69
2023/01/10 05:10:58;;;;;;;9.80;5.40;;;;;;;-145.63;100.00;61273.97;4781536;30;20059;-68
2023/01/10 05:13:25;;;;;;;13.95;5.93;;;;;;;-145.63;100.00;61273.97;4787848;30;20034;-66
2023/01/10 05:15:57;;;;;;;10.13;5.40;;;;;;;-145.63;100.00;61273.97;4789337;29;20019;-69
2023/01/10 05:18:24;;;;;;;8.85;6.03;;;;;;;-145.63;100.00;61273.97;4785359;30;20055;-68
2023/01/10 05:20:49;;;;;;;8.77;5.40;;;;;;;-145.63;100.00;61273.97;4781402;30;20043;-67
2023/01/10 05:23:15;;;;;;;10.07;5.50;;;;;;;-145.63;100.00;61273.97;4781736;30;20032;-66
2023/01/10 05:25:41;;;;;;;10.00;6.45;;;;;;;-145.63;100.00;61273.97;4781789;30;20104;-67
2023/01/10 05:28:07;;;;;;;8.35;5.70;;;;;;;-145.63;100.00;61273.97;4780344;30;20032;-66
2023/01/10 05:30:33;;;;;;;10.15;5.40;;;;;;;-145.63;100.00;61273.97;4788436;30;20041;-66
2023/01/10 05:32:58;;;;;;;7.43;4.35;;;;;;;-145.63;100.00;61273.97;4797443;29;20054;-67
2023/01/10 05:35:24;;;;;;;8.75;5.50;;;;;;;-145.63;100.00;61273.97;4797912;30;20055;-66
2023/01/10 05:37:50;;;;;;;9.23;5.55;;;;;;;-145.63;100.00;61273.97;4780429;30;20040;-67
2023/01/10 05:40:15;;;;;;;10.13;5.68;;;;;;;-145.63;100.00;61273.97;4780319;30;20104;-67
2023/01/10 05:42:41;;;;;;;9.15;5.65;;;;;;;-145.63;100.00;61273.97;4778993;30;20035;-67
2023/01/10 05:45:07;;;;;;;5.90;3.80;;;;;;;-145.63;100.00;61273.97;4781296;30;20227;-67
2023/01/10 05:47:33;;;;;;;9.88;5.68;;;;;;;-145.63;100.00;61273.97;4794880;30;20081;-68
2023/01/10 05:49:58;;;;;;;10.50;5.57;;;;;;;-145.63;100.00;61273.97;4780628;30;20047;-68
2023/01/10 05:52:24;;;;;;;10.85;5.85;;;;;;;-145.63;100.00;61273.97;4780523;30;20110;-69
2023/01/10 05:54:50;;;;;;;12.93;6.03;;;;;;;-145.63;100.00;61273.97;4780995;30;20077;-67
2023/01/10 05:57:15;;;;;;;8.93;5.32;;;;;;;-145.63;100.00;61273.97;4779216;30;20020;-68
2023/01/10 05:59:41;;;;;;;8.45;5.57;;;;;;;-145.63;100.00;61273.97;4780926;30;20336;-68
2023/01/10 06:02:06;;;;;;;10.60;5.78;;;;;;;-145.63;100.00;61273.97;4764110;30;20111;-67
2023/01/10 06:04:32;;;;;;;8.85;5.25;;;;;;;-145.63;100.00;61273.97;4762865;30;20036;-67
2023/01/10 06:06:57;;;;;;;8.05;5.20;;;;;;;-145.63;100.00;61273.97;4762695;30;20144;-68
2023/01/10 06:09:23;;;;;;;7.47;5.30;;;;;;;-145.63;100.00;61273.97;4775582;30;20051;-68
2023/01/10 06:11:48;;;;;;;9.93;6.53;;;;;;;-145.63;100.00;61273.97;4780800;30;20039;-68
2023/01/10 06:14:18;;;;;;;10.90;5.43;;;;;;;-145.63;100.00;61273.97;4780689;30;20392;-67
2023/01/10 06:16:44;;;;;;;7.72;5.05;;;;;;;-145.63;100.00;61273.97;4779078;30;20045;-68
2023/01/10 06:19:10;;;;;;;10.07;5.93;;;;;;;-145.63;100.00;61273.97;4778276;30;20294;-68
2023/01/10 06:21:36;;;;;;;8.50;5.03;;;;;;;-145.63;100.00;61273.97;4780261;30;20035;-68
2023/01/10 06:24:01;;;;;;;9.65;6.00;;;;;;;-145.63;100.00;61273.97;4779847;30;20357;-68
2023/01/10 06:26:27;;;;;;;10.88;5.00;;;;;;;-145.63;100.00;61273.97;4780283;30;20043;-69
2023/01/10 06:28:52;;;;;;;9.25;5.63;;;;;;;-145.63;100.00;61273.97;4780803;30;20031;-67
2023/01/10 06:31:18;;;;;;;9.27;4.53;;;;;;;-145.63;100.00;61273.97;4793115;30;20253;-68
2023/01/10 06:33:44;;;;;;;6.07;3.92;;;;;;;-145.63;100.00;61273.97;4798762;29;20031;-69
2023/01/10 06:36:10;;;;;;;8.98;5.03;;;;;;;-145.63;100.00;61273.97;4796878;30;20274;-67
2023/01/10 06:38:35;;;;;;;10.00;5.25;;;;;;;-145.63;100.00;61273.97;4785477;29;20089;-68
2023/01/10 06:41:11;;;;;;;9.85;6.00;;;;;;;-145.63;100.00;61273.97;4780256;30;20103;-68
2023/01/10 06:43:44;;;;;;;9.40;5.78;;;;;;;-145.63;100.00;61273.97;4780088;30;20071;-68
2023/01/10 06:46:11;;;;;;;8.32;4.95;;;;;;;-145.63;100.00;61273.97;4779339;30;20032;-70
2023/01/10 06:48:36;;;;;;;7.20;4.63;;;;;;;-145.63;100.00;61273.97;4780152;30;20046;-67
2023/01/10 06:51:05;;;;;;;10.05;5.80;;;;;;;-145.63;100.00;61273.97;4775500;30;20216;-66
2023/01/10 06:53:31;;;;;;;8.90;5.57;;;;;;;-145.63;100.00;61273.97;4776696;30;20035;-66
2023/01/10 06:55:57;;;;;;;9.05;4.88;;;;;;;-145.63;100.00;61273.97;4783896;30;20032;-67
2023/01/10 06:58:23;;;;;;;10.20;5.22;;;;;;;-145.63;100.00;61273.97;4783188;29;20096;-66
2023/01/10 07:00:49;;;;;;;12.55;5.80;;;;;;;-145.63;100.00;61273.97;4788393;30;20344;-67
2023/01/10 07:03:15;;;;;;;9.90;5.85;;;;;;;-145.63;100.00;61273.97;4787827;29;20348;-67
2023/01/10 07:05:41;;;;;;;10.55;5.05;;;;;;;-145.63;100.00;61273.97;4789152;30;20039;-67
2023/01/10 07:08:06;;;;;;;9.65;5.05;;;;;;;-145.63;100.00;61273.97;4788977;30;20035;-68
2023/01/10 07:10:32;;;;;;;11.95;5.40;;;;;;;-145.63;100.00;61273.97;4787914;30;20395;-70
2023/01/10 07:12:58;;;;;;;10.18;5.22;;;;;;;-145.63;100.00;61273.97;4787410;29;20042;-67
2023/01/10 07:15:25;;;;;;;11.45;5.18;;;;;;;-145.63;100.00;61273.97;4789143;29;20050;-69
2023/01/10 07:17:51;;;;;;;13.85;6.25;;;;;;;-145.63;100.00;61273.97;4788873;29;20031;-67
2023/01/10 07:20:18;;;;;;;9.15;4.78;;;;;;;-145.63;100.00;61273.97;4767697;30;20032;-67
2023/01/10 07:22:43;;;;;;;8.80;4.57;;;;;;;-145.63;100.00;61273.97;4781505;30;20035;-67
2023/01/10 07:25:09;;;;;;;9.20;5.03;;;;;;;-145.63;100.00;61273.97;4789106;30;20043;-67
2023/01/10 07:27:35;;;;;;;7.15;4.85;;;;;;;-145.63;100.00;61273.97;4784869;30;20039;-68
2023/01/10 07:30:01;;;;;;;10.75;4.40;;;;;;;-145.63;100.00;61273.97;4786592;30;20180;-68
2023/01/10 07:32:28;;;;;;;7.28;5.07;;;;;;;-145.63;100.00;61273.97;4788321;30;20099;-68
2023/01/10 07:34:53;;;;;;;10.05;4.60;;;;;;;-145.63;100.00;61273.97;4787254;29;20031;-68
2023/01/10 07:37:19;;;;;;;6.90;4.93;;;;;;;-145.63;100.00;61273.97;4789280;29;20027;-68
2023/01/10 07:39:47;;;;;;;9.57;5.70;;;;;;;-145.63;100.00;61273.97;4796260;29;20031;-69
2023/01/10 07:42:13;;;;;;;6.57;4.00;;;;;;;-145.63;100.00;61273.97;4778609;30;20386;-69
2023/01/10 07:44:39;;;;;;;7.60;5.15;;;;;;;-145.63;100.00;61273.97;4781070;30;20215;-68
2023/01/10 07:47:04;;;;;;;8.27;4.63;;;;;;;-145.63;100.00;61273.97;4787566;30;20036;-67
2023/01/10 07:49:30;;;;;;;7.57;4.68;;;;;;;-145.63;100.00;61273.97;4786718;29;20081;-69
2023/01/10 07:51:55;;;;;;;6.78;4.05;;;;;;;-145.63;100.00;61273.97;4787550;29;20031;-68
2023/01/10 07:54:21;;;;;;;8.18;4.53;;;;;;;-145.63;100.00;61273.97;4787926;29;20062;-67
2023/01/10 07:56:46;;;;;;;10.15;5.38;;;;;;;-145.63;100.00;61273.97;4789013;30;20129;-68
2023/01/10 07:59:12;;;;;;;8.52;5.07;;;;;;;-145.63;100.00;61273.97;4785522;30;20087;-67
2023/01/10 08:01:38;;;;;;;10.70;4.53;;;;;;;-145.63;100.00;61273.97;4779149;30;20043;-69
2023/01/10 08:04:04;;;;;;;7.72;4.40;;;;;;;-145.63;100.00;61273.97;4786111;30;20087;-67
2023/01/10 08:06:30;;;;;;;9.82;4.43;;;;;;;-145.63;100.00;61273.97;4788158;30;20037;-67
2023/01/10 08:08:56;;;;;;;9.85;4.47;;;;;;;-145.63;100.00;61273.97;4788660;30;20034;-68
2023/01/10 08:11:21;;;;;;;6.75;4.97;;;;;;;-145.63;100.00;61273.97;4788695;30;20102;-68
2023/01/10 08:13:47;;;;;;;8.98;4.70;;;;;;;-145.63;100.00;61273.97;4788650;29;20041;-67
2023/01/10 08:16:14;;;;;;;7.80;4.47;;;;;;;-145.63;100.00;61273.97;4786852;30;20028;-67
2023/01/10 08:18:42;;;;;;;8.25;4.88;;;;;;;-145.63;100.00;61273.97;4786907;29;20036;-68
2023/01/10 08:21:08;;;;;;;7.60;4.97;;;;;;;-145.63;100.00;61273.97;4787352;30;20088;-67
2023/01/10 08:23:34;;;;;;;6.38;4.53;;;;;;;-145.63;100.00;61273.97;4786913;29;20035;-69
2023/01/10 08:26:00;;;;;;;6.05;4.43;;;;;;;-145.63;100.00;61273.97;4786656;29;20050;-68
2023/01/10 08:28:27;;;;;;;9.32;4.63;;;;;;;-145.63;100.00;61273.97;4788147;29;20069;-69
2023/01/10 08:30:54;;;;;;;8.77;4.05;;;;;;;-145.63;100.00;61273.97;4786356;30;20035;-66
2023/01/10 08:33:22;;;;;;;12.38;4.80;;;;;;;-145.63;100.00;61273.97;4786576;29;20028;-69
2023/01/10 08:35:48;;;;;;;7.90;4.57;;;;;;;-145.63;100.00;61273.97;4786280;30;20043;-68
2023/01/10 08:38:14;;;;;;;6.95;4.15;;;;;;;-145.63;100.00;61273.97;4788192;30;20036;-69
2023/01/10 08:40:40;;;;;;;6.55;4.05;;;;;;;-145.63;100.00;61273.97;4786378;29;20031;-67
2023/01/10 08:43:09;;;;;;;9.98;5.43;;;;;;;-145.63;100.00;61273.97;4787312;30;20059;-68
2023/01/10 08:45:36;;;;;;;9.02;4.68;;;;;;;-145.63;100.00;61273.97;4774079;30;20046;-68
2023/01/10 08:48:03;;;;;;;10.52;4.70;;;;;;;-145.63;100.00;61273.97;4780201;30;20035;-68
2023/01/10 08:50:29;;;;;;;6.93;4.40;;;;;;;-145.63;100.00;61273.97;4796727;29;20062;-69
2023/01/10 08:52:57;;;;;;;7.90;4.50;;;;;;;-145.63;100.00;61273.97;4795331;29;20039;-69
2023/01/10 08:55:23;;;;;;;7.90;4.60;;;;;;;-145.63;100.00;61273.97;4778330;30;20379;-67
2023/01/10 08:57:49;;;;;;;8.52;5.07;;;;;;;-145.63;100.00;61273.97;4779102;30;20027;-68
2023/01/10 09:00:15;;;;;;;11.45;4.68;;;;;;;-145.63;100.00;61273.97;4778933;30;20070;-69
2023/01/10 09:02:41;;;;;;;8.85;4.55;;;;;;;-145.63;100.00;61273.97;4795182;29;20061;-67
2023/01/10 09:05:07;;;;;;;5.63;3.97;;;;;;;-145.63;100.00;61273.97;4793058;29;20059;-67
2023/01/10 09:07:32;;;;;;;7.78;4.45;;;;;;;-145.63;100.00;61273.97;4781589;30;20038;-68
2023/01/10 09:09:58;;;;;;;8.93;4.40;;;;;;;-145.63;100.00;61273.97;4782151;30;20032;-67
2023/01/10 09:15:08;;;;;;;6.95;4.00;;;;;;;-145.63;100.00;61273.97;4781873;30;20110;-67
2023/01/10 09:17:34;;;;;;;6.43;4.30;;;;;;;-145.63;100.00;61273.97;4781629;30;20043;-68
2023/01/10 09:19:59;;;;;;;8.30;4.90;;;;;;;-145.63;100.00;61273.97;4781336;30;20059;-69
2023/01/10 09:22:26;;;;;;;8.10;3.90;;;;;;;-145.63;100.00;61273.97;4793986;29;20051;-66
2023/01/10 09:24:51;;;;;;;8.02;4.32;;;;;;;-145.63;100.00;61273.97;4799645;29;20039;-67
2023/01/10 09:27:17;;;;;;;9.85;4.88;;;;;;;-145.63;100.00;61273.97;4799536;29;20031;-66
2023/01/10 09:29:42;;;;;;;8.52;4.75;;;;;;;-145.63;100.00;61273.97;4799791;29;20057;-66
2023/01/10 09:32:08;;;;;;;6.55;4.40;;;;;;;-145.63;100.00;61273.97;4799755;29;20063;-67
2023/01/10 09:34:34;;;;;;;8.18;4.40;;;;;;;-145.63;100.00;61273.97;4799431;29;20331;-68
2023/01/10 09:36:59;;;;;;;7.88;4.97;;;;;;;-145.63;100.00;61273.97;4786872;29;20040;-66
2023/01/10 09:39:27;;;;;;;6.32;4.28;;;;;;;-145.63;100.00;61273.97;4781573;30;20373;-68
2023/01/10 09:42:17;;;;;;;7.78;4.85;;;;;;;-145.63;100.00;61273.97;4793989;30;20122;-67
2023/01/10 09:44:53;;;;;;;7.60;4.88;;;;;;;-145.63;100.00;61273.97;4799426;29;20035;-67
2023/01/10 09:47:22;;;;;;;6.63;4.93;;;;;;;-145.63;100.00;61273.97;4799212;29;20039;-67
2023/01/10 09:50:14;;;;;;;8.77;4.93;;;;;;;-145.63;100.00;61273.97;4798858;29;20106;-68
2023/01/10 09:52:57;;;;;;;9.95;5.40;;;;;;;-145.63;100.00;61273.97;4798779;29;20041;-65
2023/01/10 09:55:30;;;;;;;8.63;4.82;;;;;;;-145.63;100.00;61273.97;4797033;29;20040;-68
2023/01/10 09:57:59;;;;;;;11.02;5.03;;;;;;;-145.63;100.00;61273.97;4789840;29;20032;-67
2023/01/10 10:00:37;;;;;;;7.05;4.65;;;;;;;-145.63;100.00;61273.97;4781169;30;20076;-66
2023/01/10 10:03:09;;;;;;;6.72;4.32;;;;;;;-145.63;100.00;61273.97;4781017;30;20035;-67
2023/01/10 10:05:35;;;;;;;11.20;5.38;;;;;;;-145.63;100.00;61273.97;4780544;30;20107;-68
2023/01/10 10:10:42;;;;;;;9.00;4.65;;;;;;;-145.63;100.00;61273.97;4896578;24;20123;-67
2023/01/10 10:13:24;;;;;;;8.35;4.50;;;;;;;-145.63;100.00;61273.97;4819453;29;20039;-66
2023/01/10 10:15:55;;;;;;;;;;;;;;;-145.63;100.00;61273.97;4814367;29;20221;-67
2023/01/10 10:18:31;;;;;;;7.90;4.68;;;;;;;-145.63;100.00;61273.97;4816422;29;19921;-67
2023/01/10 10:21:08;;;;;;;9.75;4.90;;;;;;;-145.63;100.00;61273.97;4800130;29;20074;-66
2023/01/10 10:23:51;;;;;;;7.20;4.70;;;;;;;-145.63;100.00;61273.97;4816216;29;20053;-66
2023/01/10 10:26:17;;;;;;;8.98;4.85;;;;;;;-145.63;100.00;61273.97;4817672;29;20031;-67
2023/01/10 10:29:13;;;;;;;6.70;4.32;;;;;;;-145.63;100.00;61273.97;4818619;29;20333;-66
2023/01/10 10:31:52;;;;;;;9.13;4.30;;;;;;;-145.63;100.00;61273.97;4814177;29;20073;-66
2023/01/10 10:34:17;;;;;;;10.15;4.50;;;;;;;-145.63;100.00;61273.97;4805489;29;20199;-67
2023/01/10 10:36:46;;;;;;;9.55;4.40;;;;;;;-145.63;100.00;61273.97;4799970;29;20095;-64
2023/01/10 10:39:16;;;;;;;9.25;4.65;;;;;;;-145.63;100.00;61273.97;4814545;29;20044;-67
2023/01/10 10:41:45;;;;;;;10.32;4.38;;;;;;;-145.63;100.00;61273.97;4807695;29;20035;-65
2023/01/10 10:44:35;;;;;;;7.32;3.70;;;;;;;-145.63;100.00;61273.97;4820946;29;20353;-66
2023/01/10 10:47:02;;;;;;;8.60;4.57;;;;;;;-145.63;100.00;61273.97;4809095;29;20042;-68
2023/01/10 10:49:42;;;;;;;7.82;4.90;;;;;;;-145.63;100.00;61273.97;4800122;29;20034;-67
2023/01/10 10:52:27;;;;;;;8.07;4.28;;;;;;;-145.63;100.00;61273.97;4799609;29;20035;-67
2023/01/10 10:54:53;;;;;;;8.20;4.20;;;;;;;-145.63;100.00;61273.97;4813017;29;20042;-65
2023/01/10 10:57:25;;;;;;;9.32;4.70;;;;;;;-145.63;100.00;61273.97;4815302;29;20266;-68
2023/01/10 10:59:51;;;;;;;7.78;4.65;;;;;;;-145.63;100.00;61273.97;4815862;29;20035;-67
2023/01/10 11:02:21;;;;;;;11.07;4.00;;;;;;;-145.63;100.00;61273.97;4815988;29;20038;-67
2023/01/10 11:04:48;;;;;;;5.75;3.92;;;;;;;-145.63;100.00;61273.97;4815107;29;20096;-65
2023/01/10 11:07:17;;;;;;;8.32;4.57;;;;;;;-145.63;100.00;61273.97;4815076;29;20035;-65
2023/01/10 11:09:49;;;;;;;9.45;4.80;;;;;;;-145.63;100.00;61273.97;4815928;29;20046;-66
2023/01/10 11:12:17;;;;;;;7.97;4.55;;;;;;;-145.63;100.00;61273.97;4816060;29;20038;-65
2023/01/10 11:14:50;;;;;;;11.13;4.72;;;;;;;-145.63;100.00;61273.97;4816102;29;20027;-65
2023/01/10 11:17:25;;;;;;;7.80;4.55;;;;;;;-145.63;100.00;61273.97;4814689;29;20256;-66
2023/01/10 11:19:58;;;;;;;12.88;4.38;;;;;;;-145.63;100.00;61273.97;4812065;29;20034;-67
2023/01/10 11:22:37;;;;;;;10.50;5.20;;;;;;;-145.63;100.00;61273.97;4805929;29;20349;-66
2023/01/10 11:25:03;;;;;;;5.38;3.80;;;;;;;-145.63;100.00;61273.97;4813179;29;20324;-67